Time,TemperatureF,DewpointF,PressureIn,WindDirection,WindDirectionDegrees,WindSpeedMPH,WindSpeedGustMPH,Humidity,HourlyPrecipIn,Conditions,Clouds,dailyrainin,SoftwareType,DateUTC
2013-11-20 00:21:00,44.0,42.0,29.81,NNE,26,0.0,-999.0,93,-99.99,,,-99.99,,2013-11-20 08:21:00,
2013-11-20 00:42:00,44.0,42.0,29.81,NNW,344,1.0,-999.0,93,-99.99,,,-99.99,,2013-11-20 08:42:00,
2013-11-20 00:52:00,43.0,41.0,29.82,WSW,257,0.0,-999.0,93,-99.99,,,-99.99,,2013-11-20 08:52:00,
2013-11-20 01:12:00,42.0,40.0,29.83,WSW,257,0.0,-999.0,93,-99.99,,,-99.99,,2013-11-20 09:12:00,
2013-11-20 01:21:00,41.0,39.0,29.83,WSW,257,0.0,-999.0,93,-99.99,,,-99.99,,2013-11-20 09:21:00,
2013-11-20 01:43:00,42.0,40.0,29.84,WSW,257,0.0,-999.0,93,-99.99,,,-99.99,,2013-11-20 09:43:00,
2013-11-20 01:54:00,41.0,39.0,29.85,WSW,257,0.0,-999.0,93,-99.99,,,-99.99,,2013-11-20 09:54:00,
2013-11-20 02:12:00,41.0,39.0,29.86,WSW,257,0.0,-999.0,93,-99.99,,,-99.99,,2013-11-20 10:12:00,
2013-11-20 02:23:00,41.0,39.0,29.86,WSW,257,0.0,-999.0,93,-99.99,,,-99.99,,2013-11-20 10:23:00,
2013-11-20 02:43:00,41.0,39.0,29.87,WSW,257,0.0,-999.0,93,-99.99,,,-99.99,,2013-11-20 10:43:00,
2013-11-20 02:53:00,40.0,38.0,29.88,WSW,257,0.0,-999.0,93,-99.99,,,-99.99,,2013-11-20 10:53:00,
2013-11-20 03:22:00,38.0,36.0,29.90,WSW,257,0.0,-999.0,93,-99.99,,,-99.99,,2013-11-20 11:22:00,
2013-11-20 03:42:00,38.0,36.0,29.91,WSW,257,0.0,-999.0,93,-99.99,,,-99.99,,2013-11-20 11:42:00,
2013-11-20 03:52:00,38.0,36.0,29.92,WSW,257,0.0,-999.0,93,-99.99,,,-99.99,,2013-11-20 11:52:00,
2013-11-20 04:11:00,38.0,36.0,29.93,ESE,118,0.0,-999.0,93,-99.99,,,-99.99,,2013-11-20 12:11:00,
2013-11-20 04:21:00,37.0,35.0,29.94,ESE,118,0.0,-999.0,93,-99.99,,,-99.99,,2013-11-20 12:21:00,
2013-11-20 04:42:00,37.0,35.0,29.96,East,86,2.0,-999.0,93,-99.99,,,-99.99,,2013-11-20 12:42:00,
2013-11-20 04:52:00,37.0,35.0,29.97,East,86,0.0,-999.0,93,-99.99,,,-99.99,,2013-11-20 12:52:00,
2013-11-20 05:11:00,37.0,35.0,29.98,East,86,0.0,-999.0,93,-99.99,,,-99.99,,2013-11-20 13:11:00,
2013-11-20 05:21:00,37.0,35.0,29.99,East,86,0.0,-999.0,93,-99.99,,,-99.99,,2013-11-20 13:21:00,
2013-11-20 05:42:00,37.0,35.0,30.01,East,86,0.0,-999.0,93,-99.99,,,-99.99,,2013-11-20 13:42:00,
2013-11-20 05:52:00,36.0,34.0,30.01,ENE,76,1.0,-999.0,93,-99.99,,,-99.99,,2013-11-20 13:52:00,
2013-11-20 06:11:00,36.0,34.0,30.02,ENE,76,0.0,-999.0,93,-99.99,,,-99.99,,2013-11-20 14:11:00,
2013-11-20 06:22:00,36.0,34.0,30.03,ENE,76,0.0,-999.0,93,-99.99,,,-99.99,,2013-11-20 14:22:00,
2013-11-20 06:42:00,35.0,33.0,30.06,ENE,76,0.0,-999.0,93,-99.99,,,-99.99,,2013-11-20 14:42:00,
2013-11-20 06:52:00,35.0,33.0,30.06,ENE,76,0.0,-999.0,93,-99.99,,,-99.99,,2013-11-20 14:52:00,
2013-11-20 07:11:00,34.0,32.0,30.08,ENE,76,0.0,-999.0,93,-99.99,,,-99.99,,2013-11-20 15:11:00,
2013-11-20 07:21:00,34.0,32.0,30.09,ENE,76,0.0,-999.0,93,-99.99,,,-99.99,,2013-11-20 15:21:00,
2013-11-20 07:43:00,33.0,31.0,30.10,ENE,61,1.0,-999.0,93,-99.99,,,-99.99,,2013-11-20 15:43:00,
2013-11-20 07:53:00,33.0,31.0,30.11,NE,47,2.0,-999.0,93,-99.99,,,-99.99,,2013-11-20 15:53:00,
2013-11-20 08:23:00,34.0,32.0,30.14,NE,38,0.0,-999.0,92,-99.99,,,-99.99,,2013-11-20 16:23:00,
2013-11-20 08:43:00,34.0,32.0,30.14,NE,38,0.0,-999.0,92,-99.99,,,-99.99,,2013-11-20 16:43:00,
2013-11-20 08:52:00,35.0,32.0,30.16,NE,39,0.0,-999.0,88,-99.99,,,-99.99,,2013-11-20 16:52:00,
2013-11-20 09:12:00,37.0,24.0,30.16,SW,214,2.0,-999.0,60,-99.99,,,-99.99,,2013-11-20 17:12:00,
2013-11-20 09:22:00,37.0,24.0,30.18,WSW,247,2.0,-999.0,59,-99.99,,,-99.99,,2013-11-20 17:22:00,
2013-11-20 09:32:00,37.0,24.0,30.18,WSW,247,2.0,-999.0,59,-99.99,,,-99.99,,2013-11-20 17:32:00,
2013-11-20 09:42:00,37.0,24.0,30.18,WSW,247,2.0,-999.0,59,-99.99,,,-99.99,,2013-11-20 17:42:00,
2013-11-20 09:52:00,36.0,23.0,30.19,West,262,2.0,-999.0,58,-99.99,,,-99.99,,2013-11-20 17:52:00,
2013-11-20 10:12:00,37.0,21.0,30.20,SW,219,3.0,-999.0,52,-99.99,,,-99.99,,2013-11-20 18:12:00,
2013-11-20 10:21:00,38.0,20.0,30.21,West,267,3.0,-999.0,48,-99.99,,,-99.99,,2013-11-20 18:21:00,
2013-11-20 10:42:00,38.0,20.0,30.21,SW,221,3.0,-999.0,47,-99.99,,,-99.99,,2013-11-20 18:42:00,
2013-11-20 10:52:00,39.0,19.0,30.21,SSW,197,3.0,-999.0,44,-99.99,,,-99.99,,2013-11-20 18:52:00,
2013-11-20 11:21:00,40.0,17.0,30.20,South,171,3.0,-999.0,39,-99.99,,,-99.99,,2013-11-20 19:21:00,
2013-11-20 11:41:00,40.0,19.0,30.21,SSW,198,2.0,-999.0,42,-99.99,,,-99.99,,2013-11-20 19:41:00,
2013-11-20 11:52:00,41.0,17.0,30.21,West,268,1.0,-999.0,38,-99.99,,,-99.99,,2013-11-20 19:52:00,
2013-11-20 12:11:00,41.0,17.0,30.21,West,261,3.0,-999.0,38,-99.99,,,-99.99,,2013-11-20 20:11:00,
2013-11-20 12:21:00,41.0,17.0,30.21,SSW,202,3.0,-999.0,37,-99.99,,,-99.99,,2013-11-20 20:21:00,
2013-11-20 12:42:00,41.0,18.0,30.21,SW,216,2.0,-999.0,39,-99.99,,,-99.99,,2013-11-20 20:42:00,
2013-11-20 12:52:00,41.0,20.0,30.22,SSW,192,3.0,-999.0,42,-99.99,,,-99.99,,2013-11-20 20:52:00,
2013-11-20 13:21:00,41.0,19.0,30.21,SSW,200,2.0,-999.0,41,-99.99,,,-99.99,,2013-11-20 21:21:00,
2013-11-20 13:43:00,40.0,20.0,30.22,SSW,197,2.0,-999.0,44,-99.99,,,-99.99,,2013-11-20 21:43:00,
2013-11-20 13:53:00,40.0,19.0,30.22,SSW,200,3.0,-999.0,43,-99.99,,,-99.99,,2013-11-20 21:53:00,
2013-11-20 14:13:00,40.0,22.0,30.22,SSW,200,2.0,-999.0,48,-99.99,,,-99.99,,2013-11-20 22:13:00,
2013-11-20 14:23:00,39.0,21.0,30.22,South,171,1.0,-999.0,49,-99.99,,,-99.99,,2013-11-20 22:23:00,
2013-11-20 14:42:00,38.0,23.0,30.23,South,171,0.0,-999.0,54,-99.99,,,-99.99,,2013-11-20 22:42:00,
2013-11-20 14:53:00,37.0,22.0,30.24,South,171,1.0,-999.0,55,-99.99,,,-99.99,,2013-11-20 22:53:00,
2013-11-20 15:12:00,36.0,24.0,30.24,South,189,0.0,-999.0,62,-99.99,,,-99.99,,2013-11-20 23:12:00,
2013-11-20 15:21:00,37.0,24.0,30.25,SSW,199,0.0,-999.0,59,-99.99,,,-99.99,,2013-11-20 23:21:00,
2013-11-20 15:42:00,36.0,24.0,30.26,SSW,211,1.0,-999.0,61,-99.99,,,-99.99,,2013-11-20 23:42:00,
2013-11-20 15:52:00,35.0,24.0,30.27,SSW,211,0.0,-999.0,64,-99.99,,,-99.99,,2013-11-20 23:52:00,
2013-11-20 16:11:00,35.0,24.0,30.27,SSW,211,0.0,-999.0,63,-99.99,,,-99.99,,2013-11-21 00:11:00,
2013-11-20 16:21:00,35.0,24.0,30.28,SSW,203,0.0,-999.0,65,-99.99,,,-99.99,,2013-11-21 00:21:00,
2013-11-20 16:42:00,34.0,25.0,30.28,SSW,203,0.0,-999.0,69,-99.99,,,-99.99,,2013-11-21 00:42:00,
2013-11-20 16:52:00,33.0,25.0,30.29,SSW,203,0.0,-999.0,71,-99.99,,,-99.99,,2013-11-21 00:52:00,
2013-11-20 17:11:00,32.0,25.0,30.30,SSW,200,0.0,-999.0,74,-99.99,,,-99.99,,2013-11-21 01:11:00,
2013-11-20 17:21:00,32.0,24.0,30.31,SSW,200,0.0,-999.0,73,-99.99,,,-99.99,,2013-11-21 01:21:00,
2013-11-20 17:42:00,31.0,24.0,30.31,SSW,200,0.0,-999.0,76,-99.99,,,-99.99,,2013-11-21 01:42:00,
2013-11-20 17:52:00,30.0,24.0,30.32,SSW,200,0.0,-999.0,78,-99.99,,,-99.99,,2013-11-21 01:52:00,
2013-11-20 18:11:00,30.0,25.0,30.32,SSW,200,0.0,-999.0,81,-99.99,,,-99.99,,2013-11-21 02:11:00,
2013-11-20 18:21:00,30.0,25.0,30.32,SSW,200,0.0,-999.0,81,-99.99,,,-99.99,,2013-11-21 02:21:00,
2013-11-20 19:21:00,28.0,24.0,30.35,SSW,200,0.0,-999.0,83,-99.99,,,-99.99,,2013-11-21 03:21:00,
2013-11-20 19:43:00,28.0,24.0,30.36,SSW,200,0.0,-999.0,83,-99.99,,,-99.99,,2013-11-21 03:43:00,
2013-11-20 19:53:00,28.0,24.0,30.37,SSW,200,0.0,-999.0,84,-99.99,,,-99.99,,2013-11-21 03:53:00,
2013-11-20 20:13:00,28.0,24.0,30.37,SSW,200,0.0,-999.0,86,-99.99,,,-99.99,,2013-11-21 04:13:00,
2013-11-20 20:23:00,28.0,24.0,30.38,SSW,200,0.0,-999.0,85,-99.99,,,-99.99,,2013-11-21 04:23:00,
2013-11-20 20:53:00,27.0,23.0,30.40,SSW,200,0.0,-999.0,86,-99.99,,,-99.99,,2013-11-21 04:53:00,
2013-11-20 21:22:00,27.0,23.0,30.40,SSW,200,0.0,-999.0,86,-99.99,,,-99.99,,2013-11-21 05:22:00,
2013-11-20 21:42:00,26.0,23.0,30.41,SSW,200,0.0,-999.0,87,-99.99,,,-99.99,,2013-11-21 05:42:00,
2013-11-20 21:52:00,26.0,23.0,30.41,SSW,200,0.0,-999.0,87,-99.99,,,-99.99,,2013-11-21 05:52:00,
2013-11-20 22:22:00,25.0,22.0,30.42,SSW,200,0.0,-999.0,88,-99.99,,,-99.99,,2013-11-21 06:22:00,
2013-11-20 22:43:00,25.0,22.0,30.43,SSW,200,0.0,-999.0,88,-99.99,,,-99.99,,2013-11-21 06:43:00,
2013-11-20 22:52:00,25.0,22.0,30.44,SSW,200,0.0,-999.0,89,-99.99,,,-99.99,,2013-11-21 06:52:00,
2013-11-20 23:22:00,25.0,22.0,30.45,SSW,200,0.0,-999.0,89,-99.99,,,-99.99,,2013-11-21 07:22:00,
2013-11-20 23:52:00,25.0,22.0,30.47,SSW,200,0.0,-999.0,90,-99.99,,,-99.99,,2013-11-21 07:52:00,